Decoded Metar for KCLT (CHARLOTTE in NC, USA) (IATA:CLT) | Meteo·Mobile Aviation Weather
aviador You're here:

KCLT Decoded Metar

CHARLOTTE in NC, USA
Report Time2018-09-21 10:52:00
UTC Time2018-09-21 11:53:14
Flight Rules vfr VFR
Wind190° at 04 kt
W.Decomp.*RWY 18: 3.8 kt HW 1.2 kt RCW
RWY 23: 3.4 kt HW 2.2 kt LCW
W.Rank190° ranks 4
Current wind is below 190° avg. (6.3)
Visibility9656 m
Phenomena:Mist
Clouds:Scattered 031 Hf
Broken 040 Hf
Broken 120 Hf
Ceiling4,000 ft
Temp22°C (ISA +8)
Dew Point22°C (100% RH)
QNH1024 hPa
Density Alt1,686 ft
Elevation722 ft
Report Wrong Elevation
Raw Report
KCLT 211052Z 19004KT 6SM BR SCT031 BKN040 BKN120 22/22 A3023 RMK
AO2 SLP227 T02220222=

Extra information for KCLT:More info

Metar Taf Metar & Taf Last 4 Metars F.Rules Stats Wind Profile Meteogram Temp Stats Airport Information Weather charts Add Link Nearby VenuesMetar ALERT Operation Metar Decoded Social comments

AIRNAV info for KCLT